Time;durP1;ratioP1;P1;durP2;ratioP2;P2;SDS_P1;SDS_P2;PMS_P1;PMS_P2;Temp;Humidity;BMP_temperature;BMP_pressure;BME280_temperature;BME280_humidity;BME280_pressure;Samples;Min_cycle;Max_cycle;Signal;HPM_P1;HPM_P2
2022/11/03 00:03:13;;;;;;;9.20;5.40;;;;;;;11.15;51.10;100150.22;10394697;28;20243;-39
2022/11/03 00:08:14;;;;;;;11.23;5.50;;;;;;;11.90;49.50;100137.03;10399949;28;20207;-43
2022/11/03 00:13:16;;;;;;;9.43;5.37;;;;;;;11.65;50.58;100139.94;10426288;28;20223;-40
2022/11/03 00:18:17;;;;;;;10.23;5.00;;;;;;;12.02;49.97;100148.94;10400907;28;20206;-39
2022/11/03 00:23:19;;;;;;;9.17;4.90;;;;;;;11.98;49.93;100134.25;10395647;28;20596;-41
2022/11/03 00:28:21;;;;;;;11.63;5.47;;;;;;;11.61;49.93;100149.34;10394366;28;20207;-42
2022/11/03 00:33:25;;;;;;;12.13;5.07;;;;;;;11.48;50.61;100146.47;10398416;28;20220;-43
2022/11/03 00:38:28;;;;;;;9.93;4.60;;;;;;;12.22;49.72;100098.25;10396921;28;20677;-43
2022/11/03 00:43:33;;;;;;;8.43;4.90;;;;;;;11.18;50.78;100149.06;10390452;28;20242;-43
2022/11/03 00:48:36;;;;;;;8.40;5.10;;;;;;;11.50;51.15;100112.28;10395096;28;20426;-43
2022/11/03 00:53:42;;;;;;;11.40;7.27;;;;;;;10.01;52.31;100135.63;10364524;28;20229;-40
2022/11/03 00:58:45;;;;;;;10.67;4.73;;;;;;;10.03;53.84;100136.28;10356698;28;20212;-44
2022/11/03 01:09:10;;;;;;;10.73;7.47;;;;;;;9.95;53.16;100129.94;10361034;28;20595;-42
2022/11/03 01:14:14;;;;;;;17.03;12.70;;;;;;;11.03;50.83;100109.66;10366343;28;20421;-42
2022/11/03 01:19:16;;;;;;;11.77;8.17;;;;;;;10.72;51.39;100114.22;10362359;28;20212;-42
2022/11/03 01:24:18;;;;;;;9.97;6.40;;;;;;;10.39;52.71;100125.91;10363827;28;20439;-41
2022/11/03 01:29:20;;;;;;;9.97;5.77;;;;;;;11.06;52.24;100076.34;10362849;28;20220;-40
2022/11/03 01:34:22;;;;;;;7.60;5.70;;;;;;;11.55;50.75;100059.78;10366732;28;20706;-41
2022/11/03 01:39:23;;;;;;;11.93;7.33;;;;;;;11.09;50.87;100080.50;10359259;28;20224;-42
2022/11/03 01:44:35;;;;;;;11.47;6.57;;;;;;;11.11;50.59;100078.47;10368046;28;20228;-44
2022/11/03 01:49:42;;;;;;;10.30;6.43;;;;;;;11.83;49.64;100044.91;10364477;28;20429;-42
2022/11/03 01:54:47;;;;;;;8.27;5.70;;;;;;;11.31;50.08;100092.19;10396694;28;20239;-42
2022/11/03 01:59:50;;;;;;;10.93;6.57;;;;;;;11.50;49.72;100083.63;10395731;28;20609;-41
2022/11/03 02:04:53;;;;;;;10.50;6.20;;;;;;;11.55;50.28;100069.66;10398017;28;20236;-43
2022/11/03 02:09:54;;;;;;;14.33;6.33;;;;;;;11.19;50.97;100073.88;10399832;28;20735;-42
2022/11/03 02:15:06;;;;;;;12.07;6.50;;;;;;;10.86;51.81;100073.31;10394480;28;20244;-43
2022/11/03 02:20:13;;;;;;;9.47;5.63;;;;;;;10.67;52.01;100064.72;10396036;28;20220;-41
2022/11/03 02:25:36;;;;;;;10.47;5.80;;;;;;;10.95;51.57;100048.16;10406038;28;20224;-41
2022/11/03 02:30:48;;;;;;;12.70;6.10;;;;;;;10.91;52.25;100030.75;10394356;28;20720;-43
2022/11/03 02:36:05;;;;;;;8.47;5.40;;;;;;;10.83;52.02;100028.16;10395058;28;20228;-41
2022/11/03 02:41:08;;;;;;;8.47;5.27;;;;;;;10.46;53.12;100027.91;10391018;28;20211;-42
2022/11/03 02:46:12;;;;;;;10.73;6.10;;;;;;;10.28;53.19;100014.81;10396193;28;20716;-42
2022/11/03 02:51:14;;;;;;;9.10;5.23;;;;;;;10.77;52.29;99999.44;10402793;28;20216;-37
2022/11/03 02:56:23;;;;;;;7.20;5.13;;;;;;;10.82;51.82;99986.34;10418348;28;20790;-41
2022/11/03 03:01:35;;;;;;;11.20;5.40;;;;;;;11.32;50.85;99950.03;10369527;28;20212;-41
2022/11/03 03:06:52;;;;;;;10.23;5.33;;;;;;;11.35;50.25;99957.66;10393993;28;20251;-40
2022/11/03 03:11:57;;;;;;;8.27;5.10;;;;;;;10.77;51.99;99962.78;10421356;28;20207;-40
2022/11/03 03:17:19;;;;;;;8.47;5.00;;;;;;;11.37;51.19;99934.22;10396150;28;20500;-38
2022/11/03 03:22:30;;;;;;;5.70;4.60;;;;;;;11.57;50.34;99934.44;10390166;28;20215;-37
2022/11/03 03:27:33;;;;;;;9.50;5.00;;;;;;;9.66;54.27;99947.97;10394061;28;20617;-44
2022/11/03 03:32:39;;;;;;;7.30;4.47;;;;;;;11.10;51.28;99921.47;10395959;28;20492;-35
2022/11/03 03:37:44;;;;;;;7.07;4.63;;;;;;;9.98;53.06;99954.19;10396304;28;20285;-39
2022/11/03 03:42:47;;;;;;;7.67;4.60;;;;;;;11.09;50.91;99922.50;10393334;28;20231;-40
2022/11/03 03:47:49;;;;;;;8.13;4.30;;;;;;;11.48;49.79;99908.78;10392355;28;20212;-40
2022/11/03 03:53:05;;;;;;;7.63;4.67;;;;;;;9.40;53.66;99936.53;10393985;28;20277;-41
2022/11/03 03:58:11;;;;;;;5.17;4.67;;;;;;;10.47;52.01;99927.06;10383387;28;20227;-40
2022/11/03 04:03:21;;;;;;;6.43;4.43;;;;;;;11.72;50.19;99869.31;10393670;28;20232;-38
2022/11/03 04:08:23;;;;;;;9.37;4.77;;;;;;;10.12;53.10;99935.53;10391290;28;20680;-43
2022/11/03 04:24:07;;;;;;;10.23;4.90;;;;;;;8.40;55.44;99893.34;10376717;28;20228;-37
2022/11/03 04:29:10;;;;;;;13.60;5.77;;;;;;;10.04;53.61;99884.78;10394376;28;20224;-41
2022/11/03 04:34:12;;;;;;;13.13;5.97;;;;;;;10.90;51.84;99879.19;10391401;28;20931;-39
2022/11/03 04:39:20;;;;;;;11.07;5.27;;;;;;;11.54;50.16;99861.63;10393069;28;20204;-37
2022/11/03 04:44:22;;;;;;;7.33;5.83;;;;;;;10.76;49.78;99904.09;10389758;28;20356;-43
2022/11/03 04:49:24;;;;;;;7.03;5.40;;;;;;;10.61;50.22;99912.88;10392226;28;20997;-40
2022/11/03 04:54:25;;;;;;;7.80;5.10;;;;;;;11.22;48.66;99880.66;10424795;28;20880;-36
2022/11/03 05:05:18;;;;;;;32.20;23.53;;;;;;;6.58;59.98;99784.69;10654603;27;20386;-65
2022/11/03 05:10:25;;;;;;;12.43;10.20;;;;;;;6.61;61.27;99774.56;10590150;27;20210;-68
2022/11/03 05:15:36;;;;;;;11.57;7.10;;;;;;;7.16;59.87;99751.19;10390975;28;20305;-64
2022/11/03 05:20:53;;;;;;;9.73;6.07;;;;;;;7.41;59.22;99761.88;10295764;28;20223;-68
2022/11/03 05:30:48;;;;;;;9.87;5.87;;;;;;;8.78;57.03;99731.72;10492448;27;1519212;-35
2022/11/03 05:35:50;;;;;;;7.90;5.47;;;;;;;8.83;56.14;99750.72;10471227;28;20245;-34
2022/11/03 05:40:53;;;;;;;12.37;6.83;;;;;;;6.80;58.69;99802.78;10466478;28;20203;-39
2022/11/03 05:45:57;;;;;;;7.10;5.70;;;;;;;6.92;59.33;99773.22;10463349;28;20231;-40
2022/11/03 05:51:09;;;;;;;12.00;5.50;;;;;;;7.97;57.47;99725.63;10448725;28;20638;-42
2022/11/03 05:56:17;;;;;;;6.27;5.47;;;;;;;8.06;56.68;99759.25;10462780;28;20343;-37
2022/11/03 06:01:31;;;;;;;7.30;4.80;;;;;;;7.38;58.58;99762.22;10469101;28;20223;-37
2022/11/03 06:06:37;;;;;;;7.77;5.33;;;;;;;8.20;56.85;99727.56;10463066;28;20302;-37
2022/11/03 06:11:39;;;;;;;16.17;11.40;;;;;;;9.21;54.79;99708.16;10458962;28;20234;-37
2022/11/03 06:16:43;;;;;;;7.80;5.33;;;;;;;8.75;55.58;99747.25;10463052;28;20600;-38
2022/11/03 06:21:47;;;;;;;8.53;5.40;;;;;;;8.18;56.38;99765.06;10457504;28;20239;-38
2022/11/03 06:26:50;;;;;;;8.33;5.33;;;;;;;9.00;54.75;99721.31;10459453;28;20263;-40
2022/11/03 06:31:55;;;;;;;8.73;4.77;;;;;;;8.37;55.66;99733.69;10407163;28;20229;-40
2022/11/03 06:37:01;;;;;;;7.60;5.00;;;;;;;8.07;56.21;99746.78;10426229;28;20712;-42
2022/11/03 06:42:14;;;;;;;5.90;4.60;;;;;;;7.39;57.89;99748.72;10407473;28;20234;-42
2022/11/03 06:47:26;;;;;;;6.10;5.00;;;;;;;6.79;58.96;99757.72;10386211;28;20236;-41
2022/11/03 06:52:34;;;;;;;5.87;4.80;;;;;;;8.60;55.75;99721.28;10385965;28;20240;-38
2022/11/03 06:57:41;;;;;;;6.87;5.37;;;;;;;8.89;55.36;99711.84;10428304;28;20459;-39
2022/11/03 07:02:45;;;;;;;11.63;7.17;;;;;;;8.60;55.40;99731.13;10423824;28;20451;-36
2022/11/03 07:07:47;;;;;;;11.40;8.43;;;;;;;8.45;55.71;99739.00;10410555;28;20232;-39
2022/11/03 07:12:49;;;;;;;21.93;15.50;;;;;;;8.79;55.32;99717.38;10415279;28;20244;-41
2022/11/03 07:17:51;;;;;;;17.03;10.23;;;;;;;8.42;55.76;99734.00;10413685;28;20234;-38
2022/11/03 07:22:55;;;;;;;17.17;10.87;;;;;;;8.42;55.91;99721.53;10430826;28;20236;-36
2022/11/03 07:28:00;;;;;;;11.50;8.20;;;;;;;8.83;55.83;99694.66;10429279;28;20228;-41
2022/11/03 07:33:13;;;;;;;7.30;5.73;;;;;;;8.75;56.10;99708.06;10433806;28;20237;-39
2022/11/03 07:38:19;;;;;;;10.87;5.20;;;;;;;7.32;59.03;99753.03;10419786;28;20224;-38
2022/11/03 07:43:29;;;;;;;11.00;6.93;;;;;;;8.59;56.64;99684.97;10433152;28;20228;-42
2022/11/03 07:48:58;;;;;;;8.60;5.77;;;;;;;9.19;55.70;99693.31;10445162;28;20238;-34
2022/11/03 07:54:17;;;;;;;6.13;4.17;;;;;;;9.78;54.80;99692.69;10426829;28;20243;-40
2022/11/03 07:59:27;;;;;;;9.00;7.43;;;;;;;8.26;56.80;99741.06;10439743;28;20222;-36
2022/11/03 08:04:32;;;;;;;6.57;5.50;;;;;;;8.16;57.83;99744.94;10424992;28;20232;-40
2022/11/03 08:09:34;;;;;;;8.07;6.80;;;;;;;8.15;57.48;99743.25;10419731;28;20239;-39
2022/11/03 08:14:36;;;;;;;9.90;5.13;;;;;;;6.90;61.36;99732.66;10440443;28;20232;-41
2022/11/03 08:19:38;;;;;;;7.87;6.17;;;;;;;7.79;60.30;99680.50;10443402;28;20231;-40
2022/11/03 08:24:40;;;;;;;10.10;6.40;;;;;;;7.12;61.14;99691.28;10427189;28;20705;-35
2022/11/03 08:29:41;;;;;;;15.73;6.10;;;;;;;7.86;60.20;99643.38;10440929;28;20224;-40
2022/11/03 08:34:43;;;;;;;9.57;6.77;;;;;;;7.31;61.40;99661.72;10428552;28;20239;-40
2022/11/03 08:39:45;;;;;;;10.80;7.13;;;;;;;7.32;61.66;99652.72;10434955;28;20643;-40
2022/11/03 08:44:46;;;;;;;13.53;8.57;;;;;;;7.46;61.73;99631.75;10436215;28;20235;-36
2022/11/03 08:49:48;;;;;;;11.37;9.00;;;;;;;8.20;61.16;99592.47;10417073;28;20235;-40
2022/11/03 08:54:49;;;;;;;10.03;8.43;;;;;;;7.95;61.33;99597.06;10396600;28;20242;-45
2022/11/03 08:59:51;;;;;;;13.47;8.20;;;;;;;10.12;56.83;99587.94;10396645;28;20666;-39
2022/11/03 09:04:53;;;;;;;9.60;7.23;;;;;;;9.58;57.39;99654.94;10380381;28;20697;-36
2022/11/03 09:09:55;;;;;;;9.20;6.00;;;;;;;8.59;58.75;99676.09;10431023;28;20232;-40
2022/11/03 09:15:16;;;;;;;9.80;6.13;;;;;;;9.98;56.45;99649.44;10428258;28;20789;-42
2022/11/03 09:20:19;;;;;;;8.30;5.27;;;;;;;10.75;55.14;99626.75;10399292;28;20614;-39
2022/11/03 09:25:21;;;;;;;7.10;5.93;;;;;;;9.72;57.22;99659.50;10421437;28;20615;-39
2022/11/03 09:30:23;;;;;;;8.03;5.63;;;;;;;9.44;58.20;99656.56;10440735;28;20242;-45
2022/11/03 09:35:25;;;;;;;8.37;6.47;;;;;;;9.21;59.51;99633.41;10439333;28;20822;-39
2022/11/03 09:40:26;;;;;;;8.00;5.57;;;;;;;10.20;57.38;99595.00;10418205;28;20447;-35
2022/11/03 09:45:28;;;;;;;10.00;6.77;;;;;;;10.71;57.30;99604.84;10424578;28;20235;-41
2022/11/03 09:50:30;;;;;;;12.50;8.70;;;;;;;10.97;55.79;99624.94;10432190;28;20228;-39
2022/11/03 09:55:33;;;;;;;10.93;6.70;;;;;;;9.91;59.14;99628.75;10424653;28;20239;-35
2022/11/03 10:00:34;;;;;;;8.03;5.30;;;;;;;10.55;57.26;99607.78;10417544;28;20231;-37
2022/11/03 10:05:37;;;;;;;7.97;5.57;;;;;;;10.29;57.31;99601.06;10418085;28;20246;-41
2022/11/03 10:10:39;;;;;;;9.70;5.83;;;;;;;10.58;56.45;99600.19;10415975;28;20233;-43
2022/11/03 10:15:41;;;;;;;9.30;6.47;;;;;;;10.98;56.06;99576.53;10433758;28;20236;-39
2022/11/03 10:20:42;;;;;;;9.83;5.77;;;;;;;10.61;56.27;99604.34;10439999;28;20231;-34
2022/11/03 10:25:45;;;;;;;9.60;5.80;;;;;;;11.15;55.12;99576.25;10428256;28;20258;-41
2022/11/03 10:30:52;;;;;;;9.87;5.50;;;;;;;11.11;55.69;99567.78;10446849;28;20318;-41
2022/11/03 10:36:14;;;;;;;14.50;5.47;;;;;;;10.23;58.35;99583.94;10432176;28;20235;-39
2022/11/03 10:41:24;;;;;;;8.40;5.83;;;;;;;10.97;56.55;99558.00;10444802;28;20232;-40
2022/11/03 10:46:25;;;;;;;7.70;5.40;;;;;;;10.34;57.36;99569.25;10411442;28;20242;-42
2022/11/03 10:51:50;;;;;;;9.93;5.03;;;;;;;11.52;54.82;99515.31;10410727;28;20501;-38
2022/11/03 10:56:52;;;;;;;13.13;5.77;;;;;;;11.61;55.17;99506.13;10375258;28;20244;-38
2022/11/03 11:06:26;;;;;;;9.70;5.40;;;;;;;8.83;61.85;99513.22;10447665;28;20810;-67
2022/11/03 11:11:28;;;;;;;9.93;6.30;;;;;;;10.17;59.43;99448.31;10438649;28;20239;-68
2022/11/03 11:16:49;;;;;;;11.77;5.80;;;;;;;10.22;59.78;99437.06;10466515;28;20239;-69
2022/11/03 11:21:54;;;;;;;8.83;5.17;;;;;;;10.28;58.69;99441.66;10470457;28;20233;-69
2022/11/03 11:26:55;;;;;;;8.60;4.73;;;;;;;11.42;56.11;99412.03;10481520;28;20231;-66
2022/11/03 11:31:57;;;;;;;9.17;5.43;;;;;;;10.25;58.02;99450.88;10469391;28;20232;-69
2022/11/03 11:36:59;;;;;;;8.77;5.40;;;;;;;9.63;59.82;99454.03;10455981;28;20223;-67
2022/11/03 11:42:08;;;;;;;7.53;5.53;;;;;;;11.06;57.11;99409.56;10467919;28;20235;-69
2022/11/03 11:47:28;;;;;;;7.03;5.10;;;;;;;11.40;56.28;99398.00;10463930;28;20231;-68
2022/11/03 11:52:31;;;;;;;9.63;5.43;;;;;;;11.64;55.95;99390.47;10465709;28;20238;-66
2022/11/03 11:57:34;;;;;;;8.50;5.67;;;;;;;10.69;57.66;99435.63;10479884;28;20231;-68
2022/11/03 12:02:35;;;;;;;8.70;5.50;;;;;;;11.48;56.88;99404.22;10468052;28;20231;-69
2022/11/03 12:07:37;;;;;;;8.67;5.83;;;;;;;11.95;54.90;99399.88;10461120;28;20235;-69
2022/11/03 12:12:38;;;;;;;9.30;5.87;;;;;;;11.99;55.21;99406.47;10453824;28;20232;-68
2022/11/03 12:17:40;;;;;;;12.87;6.90;;;;;;;11.45;56.20;99403.56;10435212;28;20235;-68
2022/11/03 12:22:42;;;;;;;12.53;6.70;;;;;;;12.52;54.17;99355.56;10434297;28;20239;-68
2022/11/03 12:27:43;;;;;;;7.60;5.23;;;;;;;11.04;57.66;99414.28;10434756;28;20255;-67
2022/11/03 12:32:46;;;;;;;6.63;5.20;;;;;;;13.43;53.34;99321.66;10435378;28;20289;-67
2022/11/03 12:37:48;;;;;;;9.93;5.67;;;;;;;12.44;54.99;99330.78;10433146;28;20239;-67
2022/11/03 12:42:49;;;;;;;10.53;5.37;;;;;;;11.90;56.32;99357.56;10434944;28;20722;-67
2022/11/03 12:47:51;;;;;;;10.60;4.97;;;;;;;12.39;55.36;99288.47;10431556;28;20260;-68
2022/11/03 12:52:52;;;;;;;8.57;5.50;;;;;;;13.22;53.59;99265.53;10435713;28;20272;-68
2022/11/03 12:57:54;;;;;;;7.60;5.77;;;;;;;11.90;55.56;99303.13;10449778;28;20204;-68
2022/11/03 13:02:56;;;;;;;8.37;5.70;;;;;;;11.97;55.59;99290.56;10422972;28;20239;-68
2022/11/03 13:07:57;;;;;;;8.93;5.87;;;;;;;12.24;55.68;99237.72;10416289;28;20423;-68
2022/11/03 13:12:59;;;;;;;9.37;5.53;;;;;;;12.07;56.33;99231.16;10434661;28;20227;-68
2022/11/03 13:18:01;;;;;;;8.53;5.50;;;;;;;12.61;55.60;99167.47;10431595;28;20212;-67
2022/11/03 13:23:18;;;;;;;8.97;4.67;;;;;;;12.88;54.35;99176.25;10421496;28;20281;-69
2022/11/03 13:28:23;;;;;;;11.67;4.73;;;;;;;11.39;56.03;99213.38;10408217;28;20245;-67
2022/11/03 13:33:25;;;;;;;8.23;4.60;;;;;;;12.52;55.27;99165.03;10435611;28;20228;-68
2022/11/03 13:38:26;;;;;;;9.13;6.30;;;;;;;11.19;58.42;99218.69;10441533;28;20285;-66
2022/11/03 13:43:28;;;;;;;7.17;4.40;;;;;;;12.94;54.61;99140.47;10409283;28;20228;-69
2022/11/03 13:48:30;;;;;;;9.23;4.63;;;;;;;13.09;53.98;99140.16;10435957;28;20243;-68
2022/11/03 13:53:51;;;;;;;9.83;4.60;;;;;;;12.17;55.40;99161.81;10430754;28;20894;-67
2022/11/03 13:59:13;;;;;;;9.03;4.83;;;;;;;11.60;56.34;99130.09;10436124;28;20223;-69
2022/11/03 14:04:30;;;;;;;11.03;5.23;;;;;;;12.42;55.65;99102.06;10430320;28;20240;-67
2022/11/03 14:09:47;;;;;;;23.13;10.23;;;;;;;13.52;53.62;99082.22;10425673;28;20235;-66
2022/11/03 14:14:49;;;;;;;20.57;9.30;;;;;;;12.63;55.15;99106.34;10419583;28;20232;-67
2022/11/03 14:19:52;;;;;;;7.90;5.40;;;;;;;12.99;54.94;99056.56;10403403;28;20221;-68
2022/11/03 14:25:00;;;;;;;10.37;5.37;;;;;;;12.02;56.17;99094.19;10418687;28;20229;-67
2022/11/03 14:30:03;;;;;;;9.33;4.53;;;;;;;11.09;58.68;99101.25;10428881;28;20704;-69
2022/11/03 14:35:06;;;;;;;7.93;4.40;;;;;;;10.38;59.76;99088.25;10405481;28;20263;-69
2022/11/03 14:42:02;;;;;;;7.93;4.83;;;;;;;10.88;59.31;99057.56;10394471;28;20239;-69
2022/11/03 14:45:30;;;;;;;8.27;5.00;;;;;;;10.93;59.45;99026.69;10368933;28;20255;-70
2022/11/03 14:50:32;;;;;;;10.00;4.17;;;;;;;10.85;59.19;99017.03;10387073;28;20702;-70
2022/11/03 14:55:33;;;;;;;7.07;4.23;;;;;;;10.06;61.01;99021.13;10434679;28;20232;-69
2022/11/03 15:00:35;;;;;;;7.83;4.40;;;;;;;9.76;62.40;99040.88;10426256;28;20282;-72
2022/11/03 15:05:43;;;;;;;8.10;4.80;;;;;;;9.50;63.43;99024.69;10419896;28;20236;-69
2022/11/03 15:10:45;;;;;;;7.07;4.50;;;;;;;9.76;63.18;98984.75;10427696;28;20232;-69
2022/11/03 15:15:47;;;;;;;8.77;5.00;;;;;;;10.11;60.74;98965.19;10430845;28;20236;-71
2022/11/03 15:20:48;;;;;;;8.07;5.13;;;;;;;10.70;59.77;98916.31;10429684;28;20228;-69
2022/11/03 15:25:50;;;;;;;7.40;5.10;;;;;;;10.30;60.71;98939.53;10446431;28;20236;-68
2022/11/03 15:30:52;;;;;;;9.67;5.33;;;;;;;10.01;60.70;98944.19;10429221;28;20233;-72
2022/11/03 15:35:56;;;;;;;11.33;5.20;;;;;;;10.56;59.78;98919.19;10433504;28;20243;-71
2022/11/03 15:41:14;;;;;;;12.43;5.30;;;;;;;10.66;59.85;98912.41;10427226;28;20294;-71
2022/11/03 15:46:17;;;;;;;6.23;4.63;;;;;;;10.55;59.64;98914.88;10435097;28;20315;-69
2022/11/03 15:51:19;;;;;;;7.33;5.50;;;;;;;10.68;60.49;98905.00;10451283;28;20656;-69
2022/11/03 15:56:20;;;;;;;11.27;5.23;;;;;;;9.95;62.36;98945.81;10448293;28;20235;-68
2022/11/03 16:01:22;;;;;;;8.33;6.00;;;;;;;9.58;62.99;98955.94;10413975;28;20235;-70
2022/11/03 16:06:24;;;;;;;12.30;6.80;;;;;;;9.62;62.90;98960.84;10443491;28;20363;-67
2022/11/03 16:11:46;;;;;;;14.67;7.43;;;;;;;9.17;63.84;98970.06;10436799;28;20261;-68
2022/11/03 16:16:47;;;;;;;13.03;8.23;;;;;;;9.75;62.26;98944.88;10436398;28;20250;-69
2022/11/03 16:21:50;;;;;;;11.90;7.57;;;;;;;10.69;61.22;98873.69;10436318;28;20640;-71
2022/11/03 16:26:52;;;;;;;11.97;7.63;;;;;;;10.98;59.45;98877.78;10438183;28;20248;-70
2022/11/03 16:31:53;;;;;;;10.30;6.30;;;;;;;10.89;59.15;98879.88;10436474;28;20278;-72
2022/11/03 16:36:55;;;;;;;9.07;6.37;;;;;;;12.10;57.10;98866.84;10434065;28;20923;-69
2022/11/03 16:41:57;;;;;;;14.40;9.30;;;;;;;13.35;53.90;98875.84;10432441;28;20238;-68
2022/11/03 16:46:59;;;;;;;17.60;13.70;;;;;;;13.75;53.02;98869.16;10435581;28;20224;-68
2022/11/03 16:52:01;;;;;;;13.40;6.63;;;;;;;12.89;54.24;98899.47;10437878;28;20244;-68
2022/11/03 16:57:02;;;;;;;12.13;7.20;;;;;;;12.29;56.27;98896.41;10436182;28;20239;-67
2022/11/03 17:02:04;;;;;;;10.63;6.17;;;;;;;10.87;59.67;98951.53;10434603;28;20283;-66
2022/11/03 17:07:06;;;;;;;15.30;8.73;;;;;;;;;;10451411;28;20232;-67
2022/11/03 17:12:07;;;;;;;13.07;9.30;;;;;;;10.67;60.95;98938.13;10428502;28;20290;-67
2022/11/03 17:17:09;;;;;;;10.10;5.87;;;;;;;9.86;63.84;98957.72;10428366;28;20236;-66
2022/11/03 17:22:11;;;;;;;12.47;6.57;;;;;;;10.77;60.81;98926.22;10433048;28;20278;-67
2022/11/03 17:27:20;;;;;;;15.10;7.93;;;;;;;12.86;56.29;98821.22;10441455;28;20650;-67
2022/11/03 17:32:28;;;;;;;14.50;8.60;;;;;;;10.78;61.13;98896.59;10429812;28;20290;-67
2022/11/03 17:37:30;;;;;;;16.30;8.97;;;;;;;10.53;61.13;98888.34;10436321;28;20320;-69
2022/11/03 17:42:32;;;;;;;11.23;7.10;;;;;;;11.22;60.02;98832.63;10427892;28;20288;-66
2022/11/03 17:47:34;;;;;;;15.50;9.13;;;;;;;10.85;61.30;98853.75;10426558;28;20228;-68
2022/11/03 17:52:36;;;;;;;13.63;7.53;;;;;;;11.60;59.21;98807.72;10431918;28;20262;-68
2022/11/03 17:57:38;;;;;;;12.43;8.53;;;;;;;11.52;60.35;98810.66;10436054;28;20228;-66
2022/11/03 18:02:39;;;;;;;14.50;11.40;;;;;;;11.36;59.58;98860.19;10439409;28;20228;-68
2022/11/03 18:07:41;;;;;;;12.40;10.03;;;;;;;11.81;58.36;98850.31;10432721;28;20235;-72
2022/11/03 18:18:13;;;;;;;13.07;9.70;;;;;;;12.29;58.25;98834.72;10430758;28;20227;-68
2022/11/03 18:23:18;;;;;;;13.50;8.80;;;;;;;13.32;55.18;98836.00;10436624;28;20228;-70
2022/11/03 18:28:20;;;;;;;16.53;11.50;;;;;;;13.78;54.30;98831.06;10437880;28;20240;-70
2022/11/03 18:33:29;;;;;;;18.53;12.90;;;;;;;13.82;53.68;98822.31;10432155;28;20232;-64
2022/11/03 18:38:35;;;;;;;20.93;14.07;;;;;;;14.17;53.36;98831.53;10430181;28;20232;-70
2022/11/03 18:43:36;;;;;;;22.93;16.60;;;;;;;13.36;54.93;98841.75;10436112;28;20717;-70
2022/11/03 18:48:38;;;;;;;16.57;11.87;;;;;;;12.82;56.26;98874.53;10429740;28;20232;-71
2022/11/03 18:53:40;;;;;;;18.47;12.40;;;;;;;13.48;55.08;98837.25;10430349;28;20270;-70
2022/11/03 18:58:41;;;;;;;12.90;8.00;;;;;;;13.18;55.16;98838.00;10438724;28;20286;-70
2022/11/03 19:03:43;;;;;;;12.47;6.50;;;;;;;11.41;59.70;98869.22;10432334;28;20801;-70
2022/11/03 19:08:45;;;;;;;11.17;7.13;;;;;;;12.09;58.57;98816.09;10426960;28;20231;-68
2022/11/03 19:13:47;;;;;;;8.93;5.73;;;;;;;11.96;59.70;98791.03;10427227;28;20228;-69
2022/11/03 19:18:51;;;;;;;7.13;5.70;;;;;;;11.06;61.18;98818.69;10428973;28;20250;-67
2022/11/03 19:23:52;;;;;;;8.07;6.17;;;;;;;11.52;60.25;98763.25;10434943;28;20239;-70
2022/11/03 19:29:02;;;;;;;9.53;6.03;;;;;;;11.45;60.86;98762.47;10439734;28;20274;-71
2022/11/03 19:34:10;;;;;;;7.90;5.97;;;;;;;10.43;63.48;98770.25;10427949;28;20293;-71
2022/11/03 19:39:25;;;;;;;11.80;7.30;;;;;;;11.41;61.27;98695.13;10432379;28;20576;-71
2022/11/03 19:44:27;;;;;;;10.83;7.10;;;;;;;10.59;63.78;98739.53;10442779;28;20240;-71
2022/11/03 19:49:29;;;;;;;9.33;6.50;;;;;;;12.14;60.01;98636.59;10439739;28;20319;-70
2022/11/03 19:54:30;;;;;;;9.73;6.47;;;;;;;11.39;61.37;98691.84;10438975;28;20277;-69
2022/11/03 19:59:32;;;;;;;11.77;7.13;;;;;;;11.52;61.21;98685.56;10449859;28;20301;-69
2022/11/03 20:04:34;;;;;;;11.03;6.33;;;;;;;10.40;64.55;98701.13;10431284;28;20592;-69
2022/11/03 20:09:36;;;;;;;9.80;7.10;;;;;;;10.18;64.94;98688.00;10425879;28;20239;-69
2022/11/03 20:14:38;;;;;;;11.10;6.47;;;;;;;10.94;63.84;98611.59;10443711;28;20243;-69
2022/11/03 20:19:39;;;;;;;10.97;7.07;;;;;;;11.08;63.07;98590.91;10442817;28;20269;-69
2022/11/03 20:24:43;;;;;;;10.33;7.57;;;;;;;11.32;63.10;98580.44;10445085;28;20227;-70
2022/11/03 20:29:46;;;;;;;10.77;7.53;;;;;;;11.38;63.09;98606.34;10440796;28;20277;-71
2022/11/03 20:34:48;;;;;;;14.77;7.70;;;;;;;10.74;63.60;98662.50;10436986;28;20236;-70
2022/11/03 20:39:50;;;;;;;10.60;7.90;;;;;;;13.10;58.30;98612.69;10442199;28;20236;-71
2022/11/03 20:44:51;;;;;;;13.30;8.00;;;;;;;11.95;60.46;98667.94;10428562;28;20669;-69
2022/11/03 20:49:53;;;;;;;12.97;9.10;;;;;;;12.47;59.77;98673.81;10434898;28;20604;-74
2022/11/03 20:54:55;;;;;;;12.30;9.50;;;;;;;13.07;58.62;98674.91;10433965;28;20243;-70
2022/11/03 20:59:56;;;;;;;15.07;8.87;;;;;;;11.62;61.02;98734.19;10440643;28;20272;-70
2022/11/03 21:04:58;;;;;;;11.10;8.17;;;;;;;10.85;62.88;98736.00;10438926;28;20236;-70
2022/11/03 21:10:03;;;;;;;10.33;7.13;;;;;;;11.70;61.70;98674.13;10432275;28;20734;-73
2022/11/03 21:21:05;;;;;;;7.77;5.93;;;;;;;10.46;64.05;98791.19;10412275;28;20224;-72
2022/11/03 21:26:12;;;;;;;6.80;5.17;;;;;;;10.87;63.16;98779.44;10418663;28;20256;-70
2022/11/03 21:31:13;;;;;;;5.67;4.23;;;;;;;10.90;63.57;98795.06;10430797;28;20297;-70
2022/11/03 21:36:15;;;;;;;4.80;3.97;;;;;;;12.02;60.58;98775.94;10436727;28;20232;-71
2022/11/03 21:46:37;;;;;;;4.33;3.40;;;;;;;11.27;61.27;98824.78;10431083;28;20706;-71
2022/11/03 21:51:39;;;;;;;5.23;3.70;;;;;;;11.46;60.09;98833.78;10442725;28;20230;-70
2022/11/03 21:56:40;;;;;;;4.10;2.80;;;;;;;10.83;60.75;98870.03;10433204;28;20259;-71
2022/11/03 22:01:42;;;;;;;5.47;3.23;;;;;;;11.31;59.95;98836.72;10429196;28;20350;-71
2022/11/03 22:06:44;;;;;;;2.93;2.70;;;;;;;10.21;61.80;98890.78;10434255;28;20468;-74
2022/11/03 22:11:46;;;;;;;3.13;2.83;;;;;;;10.45;60.32;98901.91;10427048;28;20708;-71
2022/11/03 22:16:47;;;;;;;3.90;2.73;;;;;;;10.02;61.81;98945.81;10425962;28;20582;-71
2022/11/03 22:27:10;;;;;;;3.00;2.80;;;;;;;10.39;60.41;98942.84;10437064;28;20239;-71
2022/11/03 22:32:14;;;;;;;3.63;2.70;;;;;;;10.67;59.86;98954.19;10427303;28;20232;-70
2022/11/03 22:37:16;;;;;;;4.97;2.60;;;;;;;10.24;61.15;98991.13;10424389;28;20243;-72
2022/11/03 22:47:38;;;;;;;3.30;2.50;;;;;;;9.80;60.69;98995.88;10431808;28;20240;-70
2022/11/03 22:52:39;;;;;;;3.43;2.40;;;;;;;10.68;58.78;98950.47;10432906;28;20299;-71
2022/11/03 22:57:42;;;;;;;4.20;2.77;;;;;;;10.94;58.55;98956.06;10428526;28;20228;-70
2022/11/03 23:02:43;;;;;;;3.23;2.70;;;;;;;11.02;58.50;98961.22;10447725;28;20243;-71
2022/11/03 23:07:45;;;;;;;3.00;2.40;;;;;;;9.60;59.55;98985.09;10500271;28;20291;-71
2022/11/03 23:12:46;;;;;;;3.10;2.80;;;;;;;10.93;58.90;98983.84;10479345;28;20234;-70
2022/11/03 23:24:57;;;;;;;2.43;2.23;;;;;;;10.67;58.80;99034.44;10477705;28;20264;-71
2022/11/03 23:28:29;;;;;;;3.33;2.50;;;;;;;10.54;59.58;99009.53;10483224;28;20238;-70
2022/11/03 23:33:31;;;;;;;2.50;2.30;;;;;;;11.26;57.86;98990.00;10484303;28;20226;-70
2022/11/03 23:38:34;;;;;;;2.53;2.33;;;;;;;10.92;58.01;98995.56;10484079;28;20218;-72
2022/11/03 23:43:36;;;;;;;2.20;2.03;;;;;;;9.88;59.70;99016.31;10483611;28;20278;-71
2022/11/03 23:48:47;;;;;;;2.47;2.27;;;;;;;11.12;58.07;98999.09;10482895;28;20238;-71
2022/11/03 23:53:50;;;;;;;2.83;2.60;;;;;;;10.76;57.74;99007.53;10483252;28;20715;-70
2022/11/03 23:58:52;;;;;;;3.20;2.00;;;;;;;10.88;57.99;98995.16;10481755;28;20263;-70
